sensor_id;sensor_type;location;lat;lon;timestamp;pressure;altitude;pressure_sealevel;temperature;humidity
23953;BME280;12163;49.316;6.092;2022-07-10T00:00:26;100274.44;;;18.98;52.44
23953;BME280;12163;49.316;6.092;2022-07-10T00:02:53;100260.13;;;18.93;52.35
23953;BME280;12163;49.316;6.092;2022-07-10T00:05:20;100270.09;;;18.89;52.39
23953;BME280;12163;49.316;6.092;2022-07-10T00:07:48;100265.09;;;18.82;53.00
23953;BME280;12163;49.316;6.092;2022-07-10T00:10:17;100252.41;;;18.78;52.64
23953;BME280;12163;49.316;6.092;2022-07-10T00:12:45;100261.59;;;18.73;52.70
23953;BME280;12163;49.316;6.092;2022-07-10T00:15:12;100256.75;;;18.71;53.46
23953;BME280;12163;49.316;6.092;2022-07-10T00:17:39;100262.22;;;18.71;52.79
23953;BME280;12163;49.316;6.092;2022-07-10T00:20:07;100251.59;;;18.69;53.98
23953;BME280;12163;49.316;6.092;2022-07-10T00:22:35;100261.28;;;18.67;53.52
23953;BME280;12163;49.316;6.092;2022-07-10T00:25:03;100269.59;;;18.62;54.05
23953;BME280;12163;49.316;6.092;2022-07-10T00:27:29;100262.69;;;18.56;54.07
23953;BME280;12163;49.316;6.092;2022-07-10T00:29:56;100261.25;;;18.50;54.62
23953;BME280;12163;49.316;6.092;2022-07-10T00:32:23;100255.44;;;18.43;54.48
23953;BME280;12163;49.316;6.092;2022-07-10T00:34:50;100259.94;;;18.39;55.18
23953;BME280;12163;49.316;6.092;2022-07-10T00:37:17;100254.63;;;18.34;55.27
23953;BME280;12163;49.316;6.092;2022-07-10T00:39:44;100253.94;;;18.28;55.79
23953;BME280;12163;49.316;6.092;2022-07-10T00:42:12;100268.56;;;18.24;55.67
23953;BME280;12163;49.316;6.092;2022-07-10T00:44:40;100273.03;;;18.20;55.29
23953;BME280;12163;49.316;6.092;2022-07-10T00:47:08;100261.94;;;18.16;56.02
23953;BME280;12163;49.316;6.092;2022-07-10T00:49:36;100263.38;;;18.14;55.94
23953;BME280;12163;49.316;6.092;2022-07-10T00:52:07;100260.50;;;18.10;56.29
23953;BME280;12163;49.316;6.092;2022-07-10T00:54:34;100263.53;;;18.09;55.69
23953;BME280;12163;49.316;6.092;2022-07-10T00:57:03;100270.13;;;18.08;56.00
23953;BME280;12163;49.316;6.092;2022-07-10T00:59:31;100265.28;;;18.05;56.66
23953;BME280;12163;49.316;6.092;2022-07-10T01:01:58;100259.97;;;18.00;56.72
23953;BME280;12163;49.316;6.092;2022-07-10T01:04:25;100260.59;;;17.97;56.76
23953;BME280;12163;49.316;6.092;2022-07-10T01:06:51;100254.16;;;17.93;56.39
23953;BME280;12163;49.316;6.092;2022-07-10T01:09:18;100255.91;;;17.89;57.19
23953;BME280;12163;49.316;6.092;2022-07-10T01:11:45;100258.16;;;17.87;56.89
23953;BME280;12163;49.316;6.092;2022-07-10T01:14:14;100260.69;;;17.83;56.75
23953;BME280;12163;49.316;6.092;2022-07-10T01:16:41;100264.06;;;17.80;57.14
23953;BME280;12163;49.316;6.092;2022-07-10T01:19:08;100262.78;;;17.78;57.80
23953;BME280;12163;49.316;6.092;2022-07-10T01:21:36;100256.84;;;17.76;57.86
23953;BME280;12163;49.316;6.092;2022-07-10T01:24:08;100260.66;;;17.75;57.29
23953;BME280;12163;49.316;6.092;2022-07-10T01:26:36;100261.94;;;17.69;57.78
23953;BME280;12163;49.316;6.092;2022-07-10T01:29:05;100257.72;;;17.63;57.13
23953;BME280;12163;49.316;6.092;2022-07-10T01:31:32;100260.59;;;17.58;58.00
23953;BME280;12163;49.316;6.092;2022-07-10T01:34:00;100260.72;;;17.53;58.12
23953;BME280;12163;49.316;6.092;2022-07-10T01:36:30;100264.06;;;17.50;57.97
23953;BME280;12163;49.316;6.092;2022-07-10T01:38:58;100262.59;;;17.44;57.67
23953;BME280;12163;49.316;6.092;2022-07-10T01:41:27;100273.66;;;17.39;57.80
23953;BME280;12163;49.316;6.092;2022-07-10T01:43:53;100270.25;;;17.33;58.25
23953;BME280;12163;49.316;6.092;2022-07-10T01:46:21;100271.63;;;17.31;58.42
23953;BME280;12163;49.316;6.092;2022-07-10T01:48:48;100271.47;;;17.27;58.08
23953;BME280;12163;49.316;6.092;2022-07-10T01:51:15;100274.00;;;17.24;58.24
23953;BME280;12163;49.316;6.092;2022-07-10T01:53:42;100268.69;;;17.19;58.84
23953;BME280;12163;49.316;6.092;2022-07-10T01:56:11;100276.38;;;17.17;58.92
23953;BME280;12163;49.316;6.092;2022-07-10T01:58:38;100281.63;;;17.13;58.74
23953;BME280;12163;49.316;6.092;2022-07-10T02:01:06;100276.50;;;17.12;58.68
23953;BME280;12163;49.316;6.092;2022-07-10T02:03:33;100279.81;;;17.09;58.75
23953;BME280;12163;49.316;6.092;2022-07-10T02:06:18;100287.84;;;17.05;58.07
23953;BME280;12163;49.316;6.092;2022-07-10T02:08:45;100286.53;;;17.03;57.90
23953;BME280;12163;49.316;6.092;2022-07-10T02:11:12;100287.34;;;17.03;57.99
23953;BME280;12163;49.316;6.092;2022-07-10T02:13:39;100287.63;;;17.02;58.03
23953;BME280;12163;49.316;6.092;2022-07-10T02:16:06;100278.97;;;17.00;57.42
23953;BME280;12163;49.316;6.092;2022-07-10T02:18:32;100288.06;;;16.95;57.97
23953;BME280;12163;49.316;6.092;2022-07-10T02:20:59;100281.31;;;16.93;57.40
23953;BME280;12163;49.316;6.092;2022-07-10T02:23:26;100291.25;;;16.89;57.59
23953;BME280;12163;49.316;6.092;2022-07-10T02:25:52;100290.84;;;16.82;57.54
23953;BME280;12163;49.316;6.092;2022-07-10T02:28:19;100288.72;;;16.79;57.21
23953;BME280;12163;49.316;6.092;2022-07-10T02:30:45;100289.84;;;16.78;57.05
23953;BME280;12163;49.316;6.092;2022-07-10T02:33:12;100295.91;;;16.75;57.31
23953;BME280;12163;49.316;6.092;2022-07-10T02:35:39;100280.97;;;16.73;57.04
23953;BME280;12163;49.316;6.092;2022-07-10T02:38:05;100269.56;;;16.71;57.39
23953;BME280;12163;49.316;6.092;2022-07-10T02:40:32;100280.81;;;16.69;57.44
23953;BME280;12163;49.316;6.092;2022-07-10T02:42:58;100281.41;;;16.66;57.34
23953;BME280;12163;49.316;6.092;2022-07-10T02:45:25;100280.41;;;16.62;56.99
23953;BME280;12163;49.316;6.092;2022-07-10T02:47:52;100272.53;;;16.61;57.05
23953;BME280;12163;49.316;6.092;2022-07-10T02:50:18;100273.78;;;16.55;57.31
23953;BME280;12163;49.316;6.092;2022-07-10T02:52:45;100280.94;;;16.51;57.66
23953;BME280;12163;49.316;6.092;2022-07-10T02:55:12;100287.94;;;16.43;58.40
23953;BME280;12163;49.316;6.092;2022-07-10T02:57:38;100281.78;;;16.38;57.77
23953;BME280;12163;49.316;6.092;2022-07-10T03:00:05;100278.84;;;16.34;58.14
23953;BME280;12163;49.316;6.092;2022-07-10T03:02:32;100285.69;;;16.32;58.59
23953;BME280;12163;49.316;6.092;2022-07-10T03:04:59;100285.50;;;16.28;58.09
23953;BME280;12163;49.316;6.092;2022-07-10T03:07:25;100287.22;;;16.24;58.35
23953;BME280;12163;49.316;6.092;2022-07-10T03:09:52;100292.75;;;16.19;58.33
23953;BME280;12163;49.316;6.092;2022-07-10T03:12:19;100296.56;;;16.18;58.51
23953;BME280;12163;49.316;6.092;2022-07-10T03:14:46;100291.25;;;16.13;58.42
23953;BME280;12163;49.316;6.092;2022-07-10T03:17:13;100296.50;;;16.10;58.88
23953;BME280;12163;49.316;6.092;2022-07-10T03:19:39;100288.41;;;16.05;58.83
23953;BME280;12163;49.316;6.092;2022-07-10T03:22:06;100300.53;;;15.99;59.43
23953;BME280;12163;49.316;6.092;2022-07-10T03:24:32;100287.81;;;15.94;59.10
23953;BME280;12163;49.316;6.092;2022-07-10T03:26:59;100286.31;;;15.88;59.28
23953;BME280;12163;49.316;6.092;2022-07-10T03:29:26;100299.41;;;15.86;59.27
23953;BME280;12163;49.316;6.092;2022-07-10T03:31:52;100300.00;;;15.83;59.12
23953;BME280;12163;49.316;6.092;2022-07-10T03:34:19;100300.63;;;15.80;59.27
23953;BME280;12163;49.316;6.092;2022-07-10T03:36:46;100299.63;;;15.76;59.76
23953;BME280;12163;49.316;6.092;2022-07-10T03:39:12;100303.41;;;15.75;59.95
23953;BME280;12163;49.316;6.092;2022-07-10T03:41:39;100301.00;;;15.74;59.90
23953;BME280;12163;49.316;6.092;2022-07-10T03:44:06;100301.81;;;15.74;59.77
23953;BME280;12163;49.316;6.092;2022-07-10T03:46:32;100300.78;;;15.70;59.90
23953;BME280;12163;49.316;6.092;2022-07-10T03:48:59;100301.41;;;15.67;59.92
23953;BME280;12163;49.316;6.092;2022-07-10T03:51:25;100305.84;;;15.63;60.12
23953;BME280;12163;49.316;6.092;2022-07-10T03:53:52;100304.81;;;15.59;59.97
23953;BME280;12163;49.316;6.092;2022-07-10T03:56:19;100303.50;;;15.57;60.00
23953;BME280;12163;49.316;6.092;2022-07-10T03:59:04;100312.75;;;15.56;60.35
23953;BME280;12163;49.316;6.092;2022-07-10T04:01:30;100315.47;;;15.56;60.39
23953;BME280;12163;49.316;6.092;2022-07-10T04:03:57;100311.44;;;15.53;60.44
23953;BME280;12163;49.316;6.092;2022-07-10T04:06:24;100306.59;;;15.50;60.55
23953;BME280;12163;49.316;6.092;2022-07-10T04:08:51;100309.03;;;15.52;60.28
23953;BME280;12163;49.316;6.092;2022-07-10T04:11:18;100318.53;;;15.54;60.63
23953;BME280;12163;49.316;6.092;2022-07-10T04:13:44;100310.88;;;15.56;60.38
23953;BME280;12163;49.316;6.092;2022-07-10T04:16:11;100310.75;;;15.61;60.35
23953;BME280;12163;49.316;6.092;2022-07-10T04:18:39;100312.88;;;15.64;60.44
23953;BME280;12163;49.316;6.092;2022-07-10T04:21:07;100320.44;;;15.67;59.96
23953;BME280;12163;49.316;6.092;2022-07-10T04:23:33;100326.38;;;15.69;60.11
23953;BME280;12163;49.316;6.092;2022-07-10T04:26:00;100319.84;;;15.70;59.97
23953;BME280;12163;49.316;6.092;2022-07-10T04:28:27;100321.44;;;15.71;60.15
23953;BME280;12163;49.316;6.092;2022-07-10T04:30:54;100316.00;;;15.71;60.39
23953;BME280;12163;49.316;6.092;2022-07-10T04:33:21;100325.00;;;15.72;60.02
23953;BME280;12163;49.316;6.092;2022-07-10T04:35:48;100325.00;;;15.72;59.78
23953;BME280;12163;49.316;6.092;2022-07-10T04:38:14;100324.00;;;15.68;59.94
23953;BME280;12163;49.316;6.092;2022-07-10T04:40:41;100325.59;;;15.69;59.83
23953;BME280;12163;49.316;6.092;2022-07-10T04:43:08;100331.22;;;15.72;59.87
23953;BME280;12163;49.316;6.092;2022-07-10T04:45:36;100339.84;;;15.79;60.00
23953;BME280;12163;49.316;6.092;2022-07-10T04:48:05;100330.47;;;15.85;60.01
23953;BME280;12163;49.316;6.092;2022-07-10T04:50:32;100334.69;;;15.91;59.06
23953;BME280;12163;49.316;6.092;2022-07-10T04:52:58;100328.03;;;15.97;59.26
23953;BME280;12163;49.316;6.092;2022-07-10T04:55:25;100337.25;;;16.01;59.22
23953;BME280;12163;49.316;6.092;2022-07-10T04:57:52;100341.56;;;16.02;58.80
23953;BME280;12163;49.316;6.092;2022-07-10T05:00:19;100339.97;;;16.01;58.58
23953;BME280;12163;49.316;6.092;2022-07-10T05:02:45;100339.34;;;16.04;58.54
23953;BME280;12163;49.316;6.092;2022-07-10T05:05:12;100340.34;;;16.08;58.02
23953;BME280;12163;49.316;6.092;2022-07-10T05:07:39;100353.06;;;16.13;58.47
23953;BME280;12163;49.316;6.092;2022-07-10T05:10:05;100348.81;;;16.20;57.58
23953;BME280;12163;49.316;6.092;2022-07-10T05:12:32;100349.25;;;16.27;57.76
23953;BME280;12163;49.316;6.092;2022-07-10T05:14:59;100345.84;;;16.35;57.70
23953;BME280;12163;49.316;6.092;2022-07-10T05:17:27;100345.44;;;16.42;57.25
23953;BME280;12163;49.316;6.092;2022-07-10T05:19:55;100337.97;;;16.47;56.95
23953;BME280;12163;49.316;6.092;2022-07-10T05:22:23;100345.22;;;16.52;56.71
23953;BME280;12163;49.316;6.092;2022-07-10T05:24:50;100349.03;;;16.51;56.75
23953;BME280;12163;49.316;6.092;2022-07-10T05:27:17;100360.75;;;16.51;56.75
23953;BME280;12163;49.316;6.092;2022-07-10T05:29:46;100355.81;;;16.53;56.37
23953;BME280;12163;49.316;6.092;2022-07-10T05:32:13;100355.53;;;16.55;56.43
23953;BME280;12163;49.316;6.092;2022-07-10T05:34:41;100348.53;;;16.62;56.57
23953;BME280;12163;49.316;6.092;2022-07-10T05:37:07;100352.88;;;16.63;56.21
23953;BME280;12163;49.316;6.092;2022-07-10T05:39:34;100349.03;;;16.64;55.96
23953;BME280;12163;49.316;6.092;2022-07-10T05:42:01;100353.88;;;16.67;56.09
23953;BME280;12163;49.316;6.092;2022-07-10T05:44:28;100358.72;;;16.70;55.49
23953;BME280;12163;49.316;6.092;2022-07-10T05:46:54;100349.94;;;16.73;55.54
23953;BME280;12163;49.316;6.092;2022-07-10T05:49:21;100354.88;;;16.71;55.08
23953;BME280;12163;49.316;6.092;2022-07-10T05:51:48;100359.22;;;16.72;55.73
23953;BME280;12163;49.316;6.092;2022-07-10T05:54:14;100358.50;;;16.80;55.38
23953;BME280;12163;49.316;6.092;2022-07-10T05:56:41;100350.72;;;16.87;54.97
23953;BME280;12163;49.316;6.092;2022-07-10T05:59:07;100353.13;;;16.89;54.97
23953;BME280;12163;49.316;6.092;2022-07-10T06:01:34;100356.97;;;16.88;54.65
23953;BME280;12163;49.316;6.092;2022-07-10T06:04:01;100355.44;;;16.95;54.63
23953;BME280;12163;49.316;6.092;2022-07-10T06:06:27;100350.34;;;17.02;54.33
23953;BME280;12163;49.316;6.092;2022-07-10T06:08:54;100345.81;;;17.11;53.93
23953;BME280;12163;49.316;6.092;2022-07-10T06:11:21;100354.34;;;17.18;53.58
23953;BME280;12163;49.316;6.092;2022-07-10T06:13:48;100349.75;;;17.27;53.75
23953;BME280;12163;49.316;6.092;2022-07-10T06:16:14;100351.47;;;17.36;52.84
23953;BME280;12163;49.316;6.092;2022-07-10T06:18:41;100349.44;;;17.42;52.96
23953;BME280;12163;49.316;6.092;2022-07-10T06:21:09;100347.19;;;17.44;53.07
23953;BME280;12163;49.316;6.092;2022-07-10T06:23:35;100345.16;;;17.49;51.65
23953;BME280;12163;49.316;6.092;2022-07-10T06:26:02;100344.72;;;17.56;51.97
23953;BME280;12163;49.316;6.092;2022-07-10T06:28:28;100345.56;;;17.65;52.21
23953;BME280;12163;49.316;6.092;2022-07-10T06:30:55;100349.66;;;17.76;51.83
23953;BME280;12163;49.316;6.092;2022-07-10T06:33:26;100348.56;;;17.85;51.40
23953;BME280;12163;49.316;6.092;2022-07-10T06:35:53;100338.81;;;17.93;51.21
23953;BME280;12163;49.316;6.092;2022-07-10T06:38:19;100339.47;;;17.98;51.06
23953;BME280;12163;49.316;6.092;2022-07-10T06:40:47;100335.81;;;18.03;50.36
23953;BME280;12163;49.316;6.092;2022-07-10T06:43:14;100347.38;;;18.00;49.53
23953;BME280;12163;49.316;6.092;2022-07-10T06:45:40;100340.59;;;17.97;49.99
23953;BME280;12163;49.316;6.092;2022-07-10T06:48:08;100343.38;;;18.06;50.84
23953;BME280;12163;49.316;6.092;2022-07-10T06:50:35;100340.50;;;18.11;49.92
23953;BME280;12163;49.316;6.092;2022-07-10T06:53:02;100347.44;;;18.17;49.59
23953;BME280;12163;49.316;6.092;2022-07-10T06:55:29;100343.59;;;18.26;49.22
23953;BME280;12163;49.316;6.092;2022-07-10T06:57:56;100346.59;;;18.38;48.72
23953;BME280;12163;49.316;6.092;2022-07-10T07:00:23;100346.63;;;18.47;47.67
23953;BME280;12163;49.316;6.092;2022-07-10T07:02:50;100344.84;;;18.51;47.51
23953;BME280;12163;49.316;6.092;2022-07-10T07:05:17;100338.59;;;18.59;47.41
23953;BME280;12163;49.316;6.092;2022-07-10T07:07:43;100342.78;;;18.73;47.02
23953;BME280;12163;49.316;6.092;2022-07-10T07:10:10;100342.97;;;18.85;46.90
23953;BME280;12163;49.316;6.092;2022-07-10T07:12:37;100341.53;;;18.96;47.12
23953;BME280;12163;49.316;6.092;2022-07-10T07:15:05;100343.50;;;19.04;46.75
23953;BME280;12163;49.316;6.092;2022-07-10T07:17:32;100344.75;;;19.06;45.29
23953;BME280;12163;49.316;6.092;2022-07-10T07:20:12;100345.56;;;18.98;45.11
23953;BME280;12163;49.316;6.092;2022-07-10T07:22:57;100350.53;;;18.88;44.98
23953;BME280;12163;49.316;6.092;2022-07-10T07:25:40;100357.13;;;18.78;46.03
23953;BME280;12163;49.316;6.092;2022-07-10T07:28:09;100367.59;;;18.76;45.30
23953;BME280;12163;49.316;6.092;2022-07-10T07:30:36;100372.91;;;18.81;44.81
23953;BME280;12163;49.316;6.092;2022-07-10T07:33:03;100361.44;;;18.71;45.61
23953;BME280;12163;49.316;6.092;2022-07-10T07:35:30;100367.91;;;18.67;45.09
23953;BME280;12163;49.316;6.092;2022-07-10T07:37:57;100364.81;;;18.60;45.27
23953;BME280;12163;49.316;6.092;2022-07-10T07:40:23;100359.00;;;18.53;45.50
23953;BME280;12163;49.316;6.092;2022-07-10T07:42:51;100356.09;;;18.49;45.45
23953;BME280;12163;49.316;6.092;2022-07-10T07:45:18;100363.50;;;18.49;45.70
23953;BME280;12163;49.316;6.092;2022-07-10T07:47:52;100359.50;;;18.55;46.09
23953;BME280;12163;49.316;6.092;2022-07-10T07:50:23;100353.88;;;18.68;45.38
23953;BME280;12163;49.316;6.092;2022-07-10T07:52:49;100351.97;;;18.85;45.03
23953;BME280;12163;49.316;6.092;2022-07-10T07:55:17;100352.97;;;18.89;45.38
23953;BME280;12163;49.316;6.092;2022-07-10T07:57:45;100350.53;;;18.88;45.22
23953;BME280;12163;49.316;6.092;2022-07-10T08:00:14;100343.97;;;18.97;44.78
23953;BME280;12163;49.316;6.092;2022-07-10T08:02:41;100346.72;;;19.06;44.58
23953;BME280;12163;49.316;6.092;2022-07-10T08:05:08;100344.63;;;19.11;44.54
23953;BME280;12163;49.316;6.092;2022-07-10T08:07:56;100341.53;;;19.13;45.06
23953;BME280;12163;49.316;6.092;2022-07-10T08:10:25;100341.41;;;19.26;44.52
23953;BME280;12163;49.316;6.092;2022-07-10T08:12:53;100341.41;;;19.26;44.47
23953;BME280;12163;49.316;6.092;2022-07-10T08:15:20;100342.53;;;19.34;43.93
23953;BME280;12163;49.316;6.092;2022-07-10T08:17:53;100342.34;;;19.47;43.22
23953;BME280;12163;49.316;6.092;2022-07-10T08:20:20;100339.59;;;19.64;42.96
23953;BME280;12163;49.316;6.092;2022-07-10T08:22:47;100338.56;;;19.86;42.29
23953;BME280;12163;49.316;6.092;2022-07-10T08:25:19;100330.78;;;20.05;41.70
23953;BME280;12163;49.316;6.092;2022-07-10T08:27:46;100341.53;;;20.18;41.76
23953;BME280;12163;49.316;6.092;2022-07-10T08:30:12;100337.13;;;20.34;42.01
23953;BME280;12163;49.316;6.092;2022-07-10T08:32:40;100330.13;;;20.45;41.23
23953;BME280;12163;49.316;6.092;2022-07-10T08:35:08;100331.06;;;20.49;41.28
23953;BME280;12163;49.316;6.092;2022-07-10T08:37:42;100334.75;;;20.53;41.44
23953;BME280;12163;49.316;6.092;2022-07-10T08:40:11;100328.25;;;20.66;40.47
23953;BME280;12163;49.316;6.092;2022-07-10T08:42:40;100333.31;;;20.76;40.48
23953;BME280;12163;49.316;6.092;2022-07-10T08:45:07;100330.38;;;20.81;39.79
23953;BME280;12163;49.316;6.092;2022-07-10T08:47:35;100322.81;;;20.78;39.66
23953;BME280;12163;49.316;6.092;2022-07-10T08:50:29;100318.25;;;20.82;39.80
23953;BME280;12163;49.316;6.092;2022-07-10T08:53:01;100318.16;;;20.99;39.32
23953;BME280;12163;49.316;6.092;2022-07-10T08:55:30;100313.41;;;21.08;39.04
23953;BME280;12163;49.316;6.092;2022-07-10T08:57:58;100313.34;;;21.16;39.27
23953;BME280;12163;49.316;6.092;2022-07-10T09:00:25;100305.50;;;21.27;39.34
23953;BME280;12163;49.316;6.092;2022-07-10T09:02:55;100311.97;;;21.43;38.94
23953;BME280;12163;49.316;6.092;2022-07-10T09:05:24;100302.72;;;21.47;38.63
23953;BME280;12163;49.316;6.092;2022-07-10T09:07:50;100299.38;;;21.42;38.85
23953;BME280;12163;49.316;6.092;2022-07-10T09:10:20;100301.56;;;21.48;39.00
23953;BME280;12163;49.316;6.092;2022-07-10T09:15:18;100312.78;;;21.43;38.85
23953;BME280;12163;49.316;6.092;2022-07-10T09:18:01;100288.53;;;21.45;39.13
23953;BME280;12163;49.316;6.092;2022-07-10T09:20:33;100281.22;;;21.49;38.66
23953;BME280;12163;49.316;6.092;2022-07-10T09:23:21;100282.69;;;21.47;39.01
23953;BME280;12163;49.316;6.092;2022-07-10T09:25:52;100285.69;;;21.54;38.33
23953;BME280;12163;49.316;6.092;2022-07-10T09:28:20;100278.97;;;21.63;38.66
23953;BME280;12163;49.316;6.092;2022-07-10T09:30:48;100283.13;;;21.49;38.98
23953;BME280;12163;49.316;6.092;2022-07-10T09:33:28;100280.91;;;21.30;38.90
23953;BME280;12163;49.316;6.092;2022-07-10T09:36:02;100289.69;;;21.24;39.43
23953;BME280;12163;49.316;6.092;2022-07-10T09:43:55;100278.56;;;21.41;39.01
23953;BME280;12163;49.316;6.092;2022-07-10T09:46:36;100268.63;;;21.60;38.45
23953;BME280;12163;49.316;6.092;2022-07-10T09:49:11;100268.59;;;21.81;38.45
23953;BME280;12163;49.316;6.092;2022-07-10T09:51:48;100264.59;;;21.90;38.00
23953;BME280;12163;49.316;6.092;2022-07-10T09:54:15;100266.66;;;22.05;38.03
23953;BME280;12163;49.316;6.092;2022-07-10T09:56:47;100269.88;;;22.19;37.52
23953;BME280;12163;49.316;6.092;2022-07-10T09:59:16;100263.91;;;22.29;36.84
23953;BME280;12163;49.316;6.092;2022-07-10T10:01:44;100270.09;;;22.26;36.99
23953;BME280;12163;49.316;6.092;2022-07-10T10:04:13;100277.78;;;22.21;37.46
23953;BME280;12163;49.316;6.092;2022-07-10T10:06:41;100262.75;;;22.06;37.18
23953;BME280;12163;49.316;6.092;2022-07-10T10:11:55;100262.19;;;22.25;37.18
23953;BME280;12163;49.316;6.092;2022-07-10T10:14:23;100262.53;;;22.35;37.23
23953;BME280;12163;49.316;6.092;2022-07-10T10:16:52;100264.06;;;22.44;37.15
23953;BME280;12163;49.316;6.092;2022-07-10T10:19:19;100252.19;;;22.68;37.28
23953;BME280;12163;49.316;6.092;2022-07-10T10:22:05;100251.06;;;22.96;36.15
23953;BME280;12163;49.316;6.092;2022-07-10T10:24:41;100251.25;;;23.03;36.28
23953;BME280;12163;49.316;6.092;2022-07-10T10:27:08;100244.16;;;23.02;36.16
23953;BME280;12163;49.316;6.092;2022-07-10T10:29:37;100248.38;;;23.12;36.09
23953;BME280;12163;49.316;6.092;2022-07-10T10:32:05;100246.59;;;23.31;35.84
23953;BME280;12163;49.316;6.092;2022-07-10T10:34:44;100248.66;;;23.50;35.98
23953;BME280;12163;49.316;6.092;2022-07-10T10:39:53;100238.97;;;23.71;35.34
23953;BME280;12163;49.316;6.092;2022-07-10T10:42:41;100238.97;;;23.71;35.15
23953;BME280;12163;49.316;6.092;2022-07-10T10:45:33;100240.84;;;23.67;35.35
23953;BME280;12163;49.316;6.092;2022-07-10T10:48:13;100232.25;;;23.84;34.75
23953;BME280;12163;49.316;6.092;2022-07-10T10:51:00;100230.25;;;23.69;34.97
23953;BME280;12163;49.316;6.092;2022-07-10T10:53:29;100226.56;;;23.77;35.01
23953;BME280;12163;49.316;6.092;2022-07-10T10:58:28;100244.69;;;23.78;35.04
23953;BME280;12163;49.316;6.092;2022-07-10T11:04:17;100221.75;;;24.05;34.98
23953;BME280;12163;49.316;6.092;2022-07-10T11:06:51;100227.44;;;24.12;34.65
23953;BME280;12163;49.316;6.092;2022-07-10T11:09:33;100239.09;;;24.21;34.47
23953;BME280;12163;49.316;6.092;2022-07-10T11:12:04;100229.56;;;24.18;34.54
23953;BME280;12163;49.316;6.092;2022-07-10T11:14:36;100225.22;;;24.02;34.34
23953;BME280;12163;49.316;6.092;2022-07-10T11:17:05;100222.63;;;24.09;34.12
23953;BME280;12163;49.316;6.092;2022-07-10T11:19:33;100217.72;;;24.18;34.42
23953;BME280;12163;49.316;6.092;2022-07-10T11:24:45;100199.06;;;24.46;33.88
23953;BME280;12163;49.316;6.092;2022-07-10T11:27:26;100203.59;;;24.54;33.88
23953;BME280;12163;49.316;6.092;2022-07-10T11:30:01;100204.56;;;24.61;34.28
23953;BME280;12163;49.316;6.092;2022-07-10T11:32:28;100206.59;;;24.83;33.80
23953;BME280;12163;49.316;6.092;2022-07-10T11:34:55;100200.13;;;24.95;33.06
23953;BME280;12163;49.316;6.092;2022-07-10T11:37:22;100189.94;;;24.99;33.23
23953;BME280;12163;49.316;6.092;2022-07-10T11:39:51;100190.53;;;24.89;33.06
23953;BME280;12163;49.316;6.092;2022-07-10T11:42:18;100187.59;;;25.01;33.15
23953;BME280;12163;49.316;6.092;2022-07-10T11:44:44;100181.81;;;24.87;32.91
23953;BME280;12163;49.316;6.092;2022-07-10T11:47:11;100183.69;;;24.83;33.22
23953;BME280;12163;49.316;6.092;2022-07-10T11:49:44;100179.34;;;24.82;33.08
23953;BME280;12163;49.316;6.092;2022-07-10T11:52:11;100179.53;;;24.92;33.08
23953;BME280;12163;49.316;6.092;2022-07-10T11:54:38;100180.59;;;25.07;33.29
23953;BME280;12163;49.316;6.092;2022-07-10T11:57:07;100166.06;;;25.29;32.54
23953;BME280;12163;49.316;6.092;2022-07-10T11:59:34;100171.06;;;25.42;32.26
23953;BME280;12163;49.316;6.092;2022-07-10T12:02:01;100176.06;;;25.59;32.19
23953;BME280;12163;49.316;6.092;2022-07-10T12:04:30;100166.63;;;25.38;32.11
23953;BME280;12163;49.316;6.092;2022-07-10T12:06:56;100174.66;;;25.24;32.70
23953;BME280;12163;49.316;6.092;2022-07-10T12:09:24;100169.28;;;25.12;32.77
23953;BME280;12163;49.316;6.092;2022-07-10T12:12:02;100160.72;;;24.98;33.03
23953;BME280;12163;49.316;6.092;2022-07-10T12:14:29;100162.81;;;25.04;33.35
23953;BME280;12163;49.316;6.092;2022-07-10T12:16:57;100160.94;;;25.08;33.14
23953;BME280;12163;49.316;6.092;2022-07-10T12:19:29;100155.28;;;25.20;33.24
23953;BME280;12163;49.316;6.092;2022-07-10T12:21:58;100159.09;;;25.35;33.25
23953;BME280;12163;49.316;6.092;2022-07-10T12:24:25;100149.41;;;25.48;32.41
23953;BME280;12163;49.316;6.092;2022-07-10T12:26:53;100153.28;;;25.66;32.57
23953;BME280;12163;49.316;6.092;2022-07-10T12:31:51;100150.47;;;26.10;31.12
23953;BME280;12163;49.316;6.092;2022-07-10T12:34:18;100158.19;;;25.98;31.40
23953;BME280;12163;49.316;6.092;2022-07-10T12:39:47;100156.13;;;25.47;32.51
23953;BME280;12163;49.316;6.092;2022-07-10T12:42:06;100157.84;;;25.55;33.00
23953;BME280;12163;49.316;6.092;2022-07-10T12:44:40;100174.88;;;25.57;32.73
23953;BME280;12163;49.316;6.092;2022-07-10T12:47:12;100174.63;;;25.43;32.95
23953;BME280;12163;49.316;6.092;2022-07-10T12:50:04;100164.59;;;25.35;32.55
23953;BME280;12163;49.316;6.092;2022-07-10T12:52:33;100167.72;;;25.33;33.05
23953;BME280;12163;49.316;6.092;2022-07-10T12:57:44;100165.94;;;25.67;32.67
23953;BME280;12163;49.316;6.092;2022-07-10T13:00:13;100160.41;;;25.67;32.80
23953;BME280;12163;49.316;6.092;2022-07-10T13:02:40;100158.50;;;25.71;32.55
23953;BME280;12163;49.316;6.092;2022-07-10T13:05:07;100165.00;;;25.82;32.47
23953;BME280;12163;49.316;6.092;2022-07-10T13:07:36;100163.03;;;26.04;32.12
23953;BME280;12163;49.316;6.092;2022-07-10T13:10:05;100163.34;;;26.29;32.01
23953;BME280;12163;49.316;6.092;2022-07-10T13:12:33;100178.91;;;26.37;31.61
23953;BME280;12163;49.316;6.092;2022-07-10T13:15:01;100178.75;;;26.26;31.41
23953;BME280;12163;49.316;6.092;2022-07-10T13:17:28;100171.56;;;26.22;32.12
23953;BME280;12163;49.316;6.092;2022-07-10T13:19:55;100166.09;;;26.25;31.59
23953;BME280;12163;49.316;6.092;2022-07-10T13:22:22;100163.91;;;26.38;32.06
23953;BME280;12163;49.316;6.092;2022-07-10T13:24:49;100164.22;;;26.62;31.78
23953;BME280;12163;49.316;6.092;2022-07-10T13:27:15;100164.78;;;26.45;31.70